createdAt,value
2024-04-25T00:01:18.002Z,1.52
2024-04-25T00:03:45.027Z,1.30
2024-04-25T00:06:11.979Z,1.58
2024-04-25T00:08:39.027Z,1.55
2024-04-25T00:11:06.110Z,1.58
2024-04-25T00:13:33.128Z,1.75
2024-04-25T00:16:00.947Z,1.40
2024-04-25T00:18:28.266Z,1.80
2024-04-25T00:20:56.591Z,1.95
2024-04-25T00:23:23.691Z,1.80
2024-04-25T00:25:50.647Z,1.80
2024-04-25T00:28:17.696Z,1.45
2024-04-25T00:30:45.135Z,1.63
2024-04-25T00:33:12.153Z,1.30
2024-04-25T00:35:39.348Z,1.70
2024-04-25T00:38:06.389Z,1.52
2024-04-25T00:40:33.522Z,1.25
2024-04-25T00:43:01.930Z,1.65
2024-04-25T00:45:28.998Z,1.52
2024-04-25T00:47:56.371Z,1.55
2024-04-25T00:50:24.509Z,1.50
2024-04-25T00:52:51.677Z,1.35
2024-04-25T01:00:15.913Z,1.45
2024-04-25T01:02:43.899Z,1.52
2024-04-25T01:05:11.415Z,1.27
2024-04-25T01:07:38.330Z,1.33
2024-04-25T01:10:05.613Z,1.30
2024-04-25T01:12:32.795Z,1.15
2024-04-25T01:14:59.885Z,1.45
2024-04-25T01:17:30.926Z,1.60
2024-04-25T01:19:57.994Z,1.33
2024-04-25T01:22:27.917Z,1.50
2024-04-25T01:24:55.276Z,1.33
2024-04-25T01:27:22.901Z,1.50
2024-04-25T01:29:49.956Z,1.10
2024-04-25T01:32:17.255Z,1.60
2024-04-25T01:34:44.528Z,1.17
2024-04-25T01:37:11.486Z,1.20
2024-04-25T01:39:38.523Z,1.25
2024-04-25T01:42:05.497Z,1.35
2024-04-25T01:44:32.576Z,1.48
2024-04-25T01:46:59.539Z,1.13
2024-04-25T01:51:53.730Z,1.05
2024-04-25T01:54:20.841Z,1.40
2024-04-25T01:56:47.880Z,1.20
2024-04-25T01:59:15.003Z,1.10
2024-04-25T02:01:42.107Z,1.10
2024-04-25T02:04:09.287Z,1.17
2024-04-25T02:06:36.344Z,1.23
2024-04-25T02:09:03.709Z,1.20
2024-04-25T02:11:31.343Z,1.08
2024-04-25T02:13:58.396Z,1.10
2024-04-25T02:16:25.431Z,1.00
2024-04-25T02:18:52.561Z,1.25
2024-04-25T02:21:38.079Z,1.00
2024-04-25T02:24:24.010Z,1.00
2024-04-25T02:26:51.064Z,1.15
2024-04-25T02:29:18.181Z,1.13
2024-04-25T02:31:45.241Z,1.10
2024-04-25T02:34:12.300Z,1.20
2024-04-25T02:36:39.602Z,1.30
2024-04-25T02:39:07.977Z,1.00
2024-04-25T02:41:35.059Z,1.17
2024-04-25T02:44:02.587Z,1.05
2024-04-25T02:46:29.599Z,1.30
2024-04-25T02:48:56.797Z,0.90
2024-04-25T02:51:23.751Z,1.08
2024-04-25T02:53:50.688Z,1.20
2024-04-25T02:56:17.777Z,1.10
2024-04-25T02:58:45.010Z,1.20
2024-04-25T03:01:12.066Z,1.08
2024-04-25T03:03:39.073Z,1.08
2024-04-25T03:06:06.988Z,1.20
2024-04-25T03:08:34.149Z,1.00
2024-04-25T03:11:05.394Z,1.27
2024-04-25T03:13:32.541Z,1.10
2024-04-25T03:16:04.073Z,1.17
2024-04-25T03:18:31.483Z,1.25
2024-04-25T03:21:07.921Z,0.73
2024-04-25T03:23:39.947Z,1.30
2024-04-25T03:26:07.073Z,1.00
2024-04-25T03:28:34.855Z,0.90
2024-04-25T03:31:02.448Z,1.35
2024-04-25T03:33:29.456Z,1.20
2024-04-25T03:35:56.500Z,1.25
2024-04-25T03:38:23.542Z,1.15
2024-04-25T03:40:50.615Z,1.20
2024-04-25T03:43:17.591Z,1.00
2024-04-25T03:45:44.588Z,1.40
2024-04-25T03:48:11.597Z,1.00
2024-04-25T03:50:38.728Z,1.10
2024-04-25T03:53:05.822Z,1.13
2024-04-25T03:55:32.867Z,1.10
2024-04-25T03:57:59.907Z,1.08
2024-04-25T04:00:26.915Z,1.10
2024-04-25T04:02:53.977Z,1.23
2024-04-25T04:05:21.323Z,1.10
2024-04-25T04:07:48.870Z,1.25
2024-04-25T04:10:15.988Z,0.90
2024-04-25T04:12:43.675Z,1.20
2024-04-25T04:15:10.674Z,0.70
2024-04-25T04:17:37.777Z,1.00
2024-04-25T04:20:05.274Z,1.20
2024-04-25T04:22:32.290Z,1.00
2024-04-25T04:24:59.303Z,1.30
2024-04-25T04:27:26.334Z,0.90
2024-04-25T04:29:53.365Z,0.80
2024-04-25T04:32:20.378Z,1.10
2024-04-25T04:34:47.328Z,0.90
2024-04-25T04:37:14.310Z,1.10
2024-04-25T04:39:41.283Z,1.02
2024-04-25T04:42:08.248Z,1.15
2024-04-25T04:44:35.336Z,1.10
2024-04-25T04:47:02.819Z,1.00
2024-04-25T04:49:29.877Z,0.95
2024-04-25T04:51:56.888Z,0.70
2024-04-25T04:54:23.915Z,0.95
2024-04-25T04:56:51.282Z,1.20
2024-04-25T04:59:18.408Z,1.05
2024-04-25T05:01:45.434Z,0.85
2024-04-25T05:04:12.545Z,1.05
2024-04-25T05:06:39.596Z,1.10
2024-04-25T05:09:06.743Z,1.10
2024-04-25T05:11:33.974Z,1.25
2024-04-25T05:14:04.075Z,1.50
2024-04-25T05:16:34.386Z,1.20
2024-04-25T05:19:01.775Z,1.17
2024-04-25T05:21:32.133Z,1.40
2024-04-25T05:24:00.838Z,1.30
2024-04-25T05:26:28.435Z,1.60
2024-04-25T05:28:55.521Z,1.20
2024-04-25T05:31:22.521Z,1.23
2024-04-25T05:33:51.088Z,1.40
2024-04-25T05:36:18.284Z,1.30
2024-04-25T05:38:45.513Z,1.40
2024-04-25T05:41:12.598Z,1.50
2024-04-25T05:43:39.553Z,1.17
2024-04-25T05:46:07.546Z,1.63
2024-04-25T05:51:02.368Z,1.90
2024-04-25T05:53:29.361Z,1.52
2024-04-25T05:55:56.623Z,1.77
2024-04-25T05:58:23.604Z,1.60
2024-04-25T06:00:50.859Z,1.77
2024-04-25T06:03:17.973Z,1.75
2024-04-25T06:05:45.155Z,1.17
2024-04-25T06:08:12.278Z,2.33
2024-04-25T06:10:39.372Z,1.60
2024-04-25T06:13:06.431Z,1.50
2024-04-25T06:15:33.507Z,1.30
2024-04-25T06:18:03.632Z,1.60
2024-04-25T06:20:30.698Z,1.88
2024-04-25T06:22:58.964Z,1.80
2024-04-25T06:25:25.936Z,1.77
2024-04-25T06:27:52.908Z,1.45
2024-04-25T06:30:19.819Z,1.52
2024-04-25T06:32:46.913Z,1.65
2024-04-25T06:35:14.295Z,1.50
2024-04-25T06:37:41.556Z,1.83
2024-04-25T06:40:09.071Z,1.50
2024-04-25T06:42:36.125Z,1.60
2024-04-25T06:45:03.187Z,1.52
2024-04-25T06:47:30.317Z,1.40
2024-04-25T06:49:57.329Z,1.45
2024-04-25T06:52:24.433Z,1.80
2024-04-25T06:54:52.597Z,1.73
2024-04-25T06:57:19.756Z,1.70
2024-04-25T06:59:48.323Z,1.77
2024-04-25T07:02:18.370Z,1.70
2024-04-25T07:04:45.477Z,1.60
2024-04-25T07:07:12.479Z,1.83
2024-04-25T07:09:39.436Z,1.83
2024-04-25T07:12:07.422Z,1.50
2024-04-25T07:14:34.582Z,1.88
2024-04-25T07:17:01.615Z,1.80
2024-04-25T07:19:28.597Z,1.52
2024-04-25T07:21:56.182Z,1.80
2024-04-25T07:24:23.278Z,1.50
2024-04-25T07:26:50.338Z,1.60
2024-04-25T07:29:17.333Z,2.05
2024-04-25T07:31:44.332Z,1.40
2024-04-25T07:34:11.307Z,1.60
2024-04-25T07:36:38.285Z,1.45
2024-04-25T07:39:05.948Z,1.55
2024-04-25T07:41:33.656Z,1.30
2024-04-25T07:44:00.726Z,1.60
2024-04-25T07:46:28.106Z,1.58
2024-04-25T07:48:55.410Z,1.63
2024-04-25T07:51:22.668Z,1.38
2024-04-25T07:53:49.759Z,1.30
2024-04-25T07:56:16.732Z,1.52
2024-04-25T07:58:43.848Z,1.67
2024-04-25T08:01:10.831Z,1.40
2024-04-25T08:03:38.023Z,1.33
2024-04-25T08:06:05.425Z,1.48
2024-04-25T08:08:32.401Z,1.30
2024-04-25T08:11:01.273Z,1.45
2024-04-25T08:13:29.113Z,1.17
2024-04-25T08:15:56.196Z,1.40
2024-04-25T08:18:23.343Z,1.35
2024-04-25T08:20:50.390Z,1.15
2024-04-25T08:23:17.383Z,1.70
2024-04-25T08:25:44.351Z,1.50
2024-04-25T08:28:11.885Z,1.17
2024-04-25T08:30:39.535Z,1.40
2024-04-25T08:33:06.758Z,1.48
2024-04-25T08:35:33.891Z,1.50
2024-04-25T08:38:02.126Z,1.40
2024-04-25T08:40:29.099Z,1.52
2024-04-25T08:42:56.107Z,1.08
2024-04-25T08:45:26.270Z,1.52
2024-04-25T08:47:54.530Z,1.60
2024-04-25T08:50:21.939Z,1.30
2024-04-25T08:52:49.907Z,1.35
2024-04-25T08:55:19.435Z,1.60
2024-04-25T09:00:14.815Z,1.67
2024-04-25T09:02:42.986Z,1.63
2024-04-25T09:05:13.748Z,1.50
2024-04-25T09:07:46.070Z,1.85
2024-04-25T09:10:14.188Z,1.30
2024-04-25T09:12:41.611Z,1.73
2024-04-25T09:15:08.837Z,1.35
2024-04-25T09:17:39.287Z,1.98
2024-04-25T09:20:08.702Z,1.48
2024-04-25T09:22:38.517Z,1.50
2024-04-25T09:27:33.982Z,1.63
2024-04-25T09:30:01.226Z,1.60
2024-04-25T09:32:28.329Z,1.60
2024-04-25T09:34:55.308Z,1.70
2024-04-25T09:37:22.548Z,1.80
2024-04-25T09:39:55.413Z,1.70
2024-04-25T09:42:28.168Z,1.60
2024-04-25T09:44:56.255Z,1.70
2024-04-25T09:47:45.979Z,1.63
2024-04-25T09:50:17.856Z,1.45
2024-04-25T09:52:59.394Z,1.52
2024-04-25T09:55:38.695Z,1.65
2024-04-25T09:58:08.163Z,1.50
2024-04-25T10:00:35.253Z,1.75
2024-04-25T10:03:04.752Z,1.30
2024-04-25T10:05:31.881Z,1.67
2024-04-25T10:07:59.250Z,1.65
2024-04-25T10:10:27.715Z,1.73
2024-04-25T10:12:54.765Z,1.90
2024-04-25T10:15:29.287Z,1.83
2024-04-25T10:17:56.882Z,1.52
2024-04-25T10:20:24.266Z,1.50
2024-04-25T10:23:01.716Z,1.40
2024-04-25T10:25:29.727Z,1.58
2024-04-25T10:28:02.257Z,1.55
2024-04-25T10:30:29.423Z,1.38
2024-04-25T10:32:59.663Z,1.13
2024-04-25T10:35:27.218Z,1.33
2024-04-25T10:37:54.439Z,1.60
2024-04-25T10:40:22.128Z,1.20
2024-04-25T10:43:03.766Z,1.35
2024-04-25T10:45:33.405Z,1.48
2024-04-25T10:48:01.058Z,1.50
2024-04-25T10:50:28.593Z,1.17
2024-04-25T10:52:56.989Z,1.20
2024-04-25T10:55:25.021Z,1.17
2024-04-25T10:57:52.101Z,1.20
2024-04-25T11:00:19.362Z,1.30
2024-04-25T11:02:51.385Z,1.10
2024-04-25T11:05:18.648Z,1.17
2024-04-25T11:07:45.777Z,1.20
2024-04-25T11:10:16.909Z,1.05
2024-04-25T11:12:45.592Z,1.05
2024-04-25T11:15:19.194Z,1.15
2024-04-25T11:17:56.517Z,1.05
2024-04-25T11:20:32.556Z,1.40
2024-04-25T11:23:21.063Z,1.10
2024-04-25T11:25:51.313Z,0.98
2024-04-25T11:28:19.710Z,1.15
2024-04-25T11:30:47.006Z,1.33
2024-04-25T11:33:14.402Z,1.15
2024-04-25T11:35:47.735Z,1.00
2024-04-25T11:38:17.423Z,0.90
2024-04-25T11:40:46.376Z,1.25
2024-04-25T11:43:17.063Z,1.00
2024-04-25T11:45:45.508Z,0.80
2024-04-25T11:48:22.166Z,1.15
2024-04-25T11:50:49.667Z,1.20
2024-04-25T11:53:16.891Z,1.00
2024-04-25T11:55:44.003Z,1.15
2024-04-25T11:58:11.213Z,1.15
2024-04-25T12:00:40.843Z,1.40
2024-04-25T12:03:07.952Z,1.10
2024-04-25T12:05:35.378Z,0.90
2024-04-25T12:08:04.625Z,1.40
2024-04-25T12:10:32.270Z,1.40
2024-04-25T12:12:59.584Z,1.20
2024-04-25T12:15:26.648Z,1.10
2024-04-25T12:17:53.864Z,1.13
2024-04-25T12:20:21.115Z,0.93
2024-04-25T12:22:48.215Z,1.30
2024-04-25T12:25:15.516Z,1.30
2024-04-25T12:27:42.591Z,1.30
2024-04-25T12:30:10.198Z,1.55
2024-04-25T12:32:37.341Z,1.30
2024-04-25T12:35:04.639Z,1.20
2024-04-25T12:37:31.728Z,1.10
2024-04-25T12:39:58.850Z,1.00
2024-04-25T12:42:27.375Z,1.10
2024-04-25T12:44:54.597Z,0.85
2024-04-25T12:47:21.709Z,1.20
2024-04-25T12:49:48.795Z,1.15
2024-04-25T12:52:16.118Z,1.13
2024-04-25T12:54:43.178Z,1.00
2024-04-25T12:57:12.660Z,1.00
2024-04-25T12:59:39.769Z,1.10
2024-04-25T13:02:06.858Z,1.00
2024-04-25T13:04:33.968Z,1.00
2024-04-25T13:07:01.051Z,1.15
2024-04-25T13:09:29.750Z,0.93
2024-04-25T13:11:57.262Z,0.93
2024-04-25T13:14:24.470Z,1.10
2024-04-25T13:16:51.545Z,0.80
2024-04-25T13:19:18.779Z,1.40
2024-04-25T13:21:46.957Z,0.90
2024-04-25T13:24:14.161Z,0.90
2024-04-25T13:26:41.333Z,1.42
2024-04-25T13:29:08.362Z,1.17
2024-04-25T13:31:36.545Z,1.10
2024-04-25T13:34:03.696Z,1.30
2024-04-25T13:36:30.765Z,1.02
2024-04-25T13:38:57.907Z,1.00
2024-04-25T13:41:24.871Z,1.17
2024-04-25T13:43:51.868Z,1.00
2024-04-25T13:46:18.984Z,0.90
2024-04-25T13:48:46.369Z,1.05
2024-04-25T13:51:13.663Z,0.68
2024-04-25T13:53:40.636Z,0.90
2024-04-25T13:56:08.219Z,1.00
2024-04-25T13:58:35.181Z,0.80
2024-04-25T14:01:02.189Z,1.05
2024-04-25T14:03:29.543Z,0.95
2024-04-25T14:05:57.777Z,1.08
2024-04-25T14:08:24.823Z,1.30
2024-04-25T14:10:51.767Z,0.80
2024-04-25T14:13:18.968Z,0.80
2024-04-25T14:15:46.147Z,1.00
2024-04-25T14:18:13.376Z,0.85
2024-04-25T14:20:40.536Z,0.90
2024-04-25T14:23:07.663Z,0.80
2024-04-25T14:25:53.101Z,0.80
2024-04-25T14:28:38.609Z,0.93
2024-04-25T14:31:07.152Z,0.90
2024-04-25T14:33:34.340Z,1.05
2024-04-25T14:36:01.700Z,0.98
2024-04-25T14:38:29.124Z,0.63
2024-04-25T14:41:00.826Z,0.75
2024-04-25T14:43:29.360Z,0.95
2024-04-25T14:45:56.471Z,0.93
2024-04-25T14:48:27.205Z,0.77
2024-04-25T14:50:56.497Z,0.80
2024-04-25T14:53:25.119Z,0.80
2024-04-25T14:55:52.661Z,0.82
2024-04-25T14:58:20.994Z,0.90
2024-04-25T15:00:48.126Z,0.60
2024-04-25T15:03:15.140Z,0.80
2024-04-25T15:05:42.231Z,0.80
2024-04-25T15:08:09.378Z,0.70
2024-04-25T15:10:36.485Z,0.95
2024-04-25T15:13:04.433Z,1.23
2024-04-25T15:15:34.280Z,0.77
2024-04-25T15:18:01.562Z,0.90
2024-04-25T15:20:28.716Z,0.70
2024-04-25T15:22:58.715Z,0.70
2024-04-25T15:25:27.856Z,0.90
2024-04-25T15:27:54.859Z,0.80
2024-04-25T15:30:21.855Z,0.80
2024-04-25T15:32:50.923Z,0.90
2024-04-25T15:35:18.473Z,1.02
2024-04-25T15:37:45.490Z,0.70
2024-04-25T15:40:12.475Z,1.00
2024-04-25T15:42:39.552Z,1.02
2024-04-25T15:45:06.840Z,0.82
2024-04-25T15:47:33.939Z,0.93
2024-04-25T15:50:00.974Z,0.82
2024-04-25T15:52:30.565Z,0.80
2024-04-25T15:54:57.544Z,1.05
2024-04-25T15:57:24.520Z,0.80
2024-04-25T15:59:51.645Z,0.80
2024-04-25T16:02:20.184Z,0.80
2024-04-25T16:04:50.098Z,0.93
2024-04-25T16:07:18.551Z,0.80
2024-04-25T16:09:48.411Z,0.77
2024-04-25T16:12:15.516Z,0.98
2024-04-25T16:14:42.689Z,0.93
2024-04-25T16:17:09.748Z,1.02
2024-04-25T16:19:36.828Z,1.02
2024-04-25T16:22:04.012Z,1.00
2024-04-25T16:24:30.938Z,0.75
2024-04-25T16:26:58.044Z,0.88
2024-04-25T16:29:26.049Z,0.80
2024-04-25T16:31:53.754Z,1.10
2024-04-25T16:34:22.350Z,0.90
2024-04-25T16:36:51.116Z,0.75
2024-04-25T16:39:18.232Z,1.00
2024-04-25T16:41:45.256Z,0.88
2024-04-25T16:44:12.309Z,0.73
2024-04-25T16:46:40.352Z,0.75
2024-04-25T16:49:07.427Z,0.88
2024-04-25T16:51:34.451Z,1.23
2024-04-25T16:54:01.520Z,1.05
2024-04-25T16:56:33.628Z,0.80
2024-04-25T16:59:00.781Z,0.90
2024-04-25T17:01:28.092Z,1.00
2024-04-25T17:03:55.387Z,1.10
2024-04-25T17:06:22.573Z,1.00
2024-04-25T17:08:49.887Z,0.80
2024-04-25T17:11:28.875Z,0.88
2024-04-25T17:14:00.472Z,1.05
2024-04-25T17:16:28.071Z,0.70
2024-04-25T17:18:56.674Z,1.08
2024-04-25T17:21:26.622Z,0.73
2024-04-25T17:23:56.735Z,0.90
2024-04-25T17:26:24.368Z,1.08
2024-04-25T17:28:52.397Z,0.95
2024-04-25T17:31:19.492Z,0.82
2024-04-25T17:36:14.176Z,1.30
2024-04-25T17:38:41.692Z,1.05
2024-04-25T17:41:08.772Z,1.05
2024-04-25T17:43:37.176Z,1.13
2024-04-25T17:46:06.656Z,0.82
2024-04-25T17:48:34.795Z,0.93
2024-04-25T17:51:02.782Z,0.93
2024-04-25T17:53:29.879Z,0.80
2024-04-25T17:55:57.130Z,0.90
2024-04-25T17:58:24.521Z,0.93
2024-04-25T18:00:51.692Z,0.90
2024-04-25T18:03:18.771Z,0.90
2024-04-25T18:05:45.866Z,0.90
2024-04-25T18:08:13.080Z,1.00
2024-04-25T18:13:11.334Z,0.70
2024-04-25T18:15:38.383Z,1.00
2024-04-25T18:18:06.096Z,1.02
2024-04-25T18:20:33.844Z,1.10
2024-04-25T18:23:00.999Z,0.80
2024-04-25T18:25:28.120Z,0.80
2024-04-25T18:27:55.958Z,1.05
2024-04-25T18:30:23.174Z,0.90
2024-04-25T18:32:50.719Z,0.80
2024-04-25T18:35:18.470Z,1.20
2024-04-25T18:37:45.673Z,1.05
2024-04-25T18:40:13.184Z,0.80
2024-04-25T18:42:40.784Z,0.90
2024-04-25T18:45:08.467Z,1.00
2024-04-25T18:47:35.789Z,0.90
2024-04-25T18:50:03.132Z,1.27
2024-04-25T18:52:30.521Z,0.82
2024-04-25T18:54:57.466Z,1.00
2024-04-25T18:57:24.429Z,1.10
2024-04-25T18:59:51.410Z,0.82
2024-04-25T19:02:18.531Z,1.00
2024-04-25T19:04:45.531Z,1.13
2024-04-25T19:07:12.569Z,1.02
2024-04-25T19:09:39.528Z,0.98
2024-04-25T19:12:06.672Z,1.20
2024-04-25T19:14:33.628Z,1.00
2024-04-25T19:17:00.706Z,1.00
2024-04-25T19:21:54.863Z,0.90
2024-04-25T19:24:22.150Z,0.90
2024-04-25T19:26:52.941Z,1.15
2024-04-25T19:29:21.061Z,1.42
2024-04-25T19:31:50.183Z,1.13
2024-04-25T19:34:23.818Z,1.15
2024-04-25T19:36:55.337Z,1.10
2024-04-25T19:39:23.223Z,1.27
2024-04-25T19:41:50.818Z,1.02
2024-04-25T19:44:18.284Z,1.08
2024-04-25T19:46:45.794Z,1.40
2024-04-25T19:49:13.126Z,1.02
2024-04-25T19:51:43.983Z,1.15
2024-04-25T19:54:11.028Z,0.85
2024-04-25T19:56:38.165Z,1.30
2024-04-25T19:59:05.267Z,0.93
2024-04-25T20:01:32.329Z,1.10
2024-04-25T20:04:00.537Z,1.10
2024-04-25T20:06:27.570Z,1.02
2024-04-25T20:08:56.348Z,1.02
2024-04-25T20:11:25.084Z,1.00
2024-04-25T20:13:52.152Z,1.08
2024-04-25T20:16:19.359Z,1.20
2024-04-25T20:19:04.998Z,0.98
2024-04-25T20:21:33.936Z,1.10
2024-04-25T20:24:04.970Z,1.00
2024-04-25T20:26:32.631Z,1.05
2024-04-25T20:29:00.247Z,1.05
2024-04-25T20:31:27.422Z,1.00
2024-04-25T20:33:54.706Z,1.10
2024-04-25T20:36:22.737Z,1.00
2024-04-25T20:38:51.653Z,1.23
2024-04-25T20:41:20.857Z,0.90
2024-04-25T20:43:48.356Z,1.10
2024-04-25T20:46:23.164Z,1.00
2024-04-25T20:48:52.056Z,1.00
2024-04-25T20:51:20.773Z,1.23
2024-04-25T20:53:47.858Z,1.10
2024-04-25T20:56:15.085Z,1.00
2024-04-25T20:58:45.336Z,1.08
2024-04-25T21:01:12.668Z,1.10
2024-04-25T21:03:40.130Z,1.10
2024-04-25T21:06:08.501Z,1.20
2024-04-25T21:08:36.262Z,0.85
2024-04-25T21:13:32.138Z,0.90
2024-04-25T21:15:59.165Z,0.95
2024-04-25T21:18:26.522Z,1.02
2024-04-25T21:20:54.687Z,1.10
2024-04-25T21:23:21.959Z,1.02
2024-04-25T21:25:54.607Z,0.90
2024-04-25T21:28:26.410Z,0.93
2024-04-25T21:30:53.430Z,1.05
2024-04-25T21:33:20.500Z,1.00
2024-04-25T21:35:47.764Z,1.02
2024-04-25T21:38:18.274Z,1.25
2024-04-25T21:40:46.213Z,1.10
2024-04-25T21:43:13.391Z,1.00
2024-04-25T21:45:40.436Z,1.00
2024-04-25T21:48:08.022Z,0.95
2024-04-25T21:50:35.783Z,1.00
2024-04-25T21:53:02.987Z,0.93
2024-04-25T21:55:30.110Z,0.88
2024-04-25T21:57:59.923Z,0.75
2024-04-25T22:00:29.295Z,0.90
2024-04-25T22:02:57.534Z,1.17
2024-04-25T22:05:24.953Z,0.90
2024-04-25T22:07:52.057Z,0.90
2024-04-25T22:10:19.092Z,0.90
2024-04-25T22:12:46.321Z,1.20
2024-04-25T22:15:13.395Z,1.02
2024-04-25T22:17:40.560Z,1.00
2024-04-25T22:20:08.147Z,1.10
2024-04-25T22:22:38.830Z,1.27
2024-04-25T22:25:05.978Z,0.95
2024-04-25T22:27:37.674Z,1.00
2024-04-25T22:30:06.211Z,0.90
2024-04-25T22:32:33.495Z,0.90
2024-04-25T22:35:00.752Z,1.20
2024-04-25T22:37:27.850Z,1.05
2024-04-25T22:39:55.319Z,0.85
2024-04-25T22:42:22.579Z,0.77
2024-04-25T22:44:50.902Z,0.88
2024-04-25T22:47:19.163Z,1.02
2024-04-25T22:49:46.243Z,0.82
2024-04-25T22:52:13.268Z,1.23
2024-04-25T22:54:40.393Z,0.90
2024-04-25T22:57:08.781Z,1.00
2024-04-25T22:59:35.944Z,1.00
2024-04-25T23:04:31.133Z,1.02
2024-04-25T23:06:58.234Z,1.20
2024-04-25T23:09:26.691Z,0.90
2024-04-25T23:11:54.218Z,1.00
2024-04-25T23:14:21.312Z,0.85
2024-04-25T23:16:48.420Z,1.27
2024-04-25T23:19:15.455Z,0.80
2024-04-25T23:21:42.505Z,1.02
2024-04-25T23:24:09.905Z,1.20
2024-04-25T23:26:38.328Z,1.02
2024-04-25T23:29:06.016Z,1.10
2024-04-25T23:31:33.275Z,1.05
2024-04-25T23:34:00.402Z,0.98
2024-04-25T23:36:27.481Z,1.23
2024-04-25T23:38:55.572Z,1.15
2024-04-25T23:41:22.841Z,0.80
2024-04-25T23:43:49.963Z,1.20
2024-04-25T23:46:17.109Z,1.00
2024-04-25T23:48:44.193Z,1.00
2024-04-25T23:51:11.146Z,0.90
2024-04-25T23:53:39.887Z,1.02
2024-04-25T23:56:09.815Z,1.17
2024-04-25T23:58:37.376Z,1.15
